createdAt,value
2023-02-27T00:00:22.907Z,98612.97
2023-02-27T00:01:24.772Z,98620.63
2023-02-27T00:02:27.627Z,98613.06
2023-02-27T00:03:29.362Z,98606.53
2023-02-27T00:04:33.384Z,98615.34
2023-02-27T00:05:35.048Z,98615.56
2023-02-27T00:06:37.680Z,98614.81
2023-02-27T00:07:39.365Z,98615.88
2023-02-27T00:08:42.051Z,98620.50
2023-02-27T00:09:43.973Z,98620.38
2023-02-27T00:10:46.603Z,98611.47
2023-02-27T00:11:48.284Z,98618.78
2023-02-27T00:12:50.961Z,98612.25
2023-02-27T00:13:52.619Z,98609.59
2023-02-27T00:14:55.239Z,98614.16
2023-02-27T00:15:56.918Z,98607.75
2023-02-27T00:16:59.564Z,98609.94
2023-02-27T00:18:01.288Z,98613.44
2023-02-27T00:19:04.777Z,98610.78
2023-02-27T00:20:11.050Z,98616.81
2023-02-27T00:21:13.686Z,98612.97
2023-02-27T00:22:15.353Z,98615.03
2023-02-27T00:23:17.995Z,98615.25
2023-02-27T00:24:19.658Z,98611.66
2023-02-27T00:25:22.319Z,98617.16
2023-02-27T00:26:24.006Z,98611.13
2023-02-27T00:27:26.636Z,98614.38
2023-02-27T00:28:29.341Z,98608.72
2023-02-27T00:29:32.211Z,98617.06
2023-02-27T00:30:33.900Z,98616.81
2023-02-27T00:31:36.570Z,98613.81
2023-02-27T00:32:38.250Z,98616.97
2023-02-27T00:33:40.889Z,98614.03
2023-02-27T00:34:42.618Z,98625.78
2023-02-27T00:35:46.624Z,98611.53
2023-02-27T00:36:48.313Z,98615.38
2023-02-27T00:37:50.934Z,98619.88
2023-02-27T00:38:52.605Z,98617.47
2023-02-27T00:39:55.232Z,98613.75
2023-02-27T00:40:56.929Z,98616.31
2023-02-27T00:41:59.561Z,98618.53
2023-02-27T00:43:01.252Z,98619.47
2023-02-27T00:44:03.892Z,98610.53
2023-02-27T00:45:06.448Z,98616.22
2023-02-27T00:46:10.203Z,98612.94
2023-02-27T00:47:11.898Z,98616.63
2023-02-27T00:48:14.518Z,98614.19
2023-02-27T00:49:16.353Z,98610.72
2023-02-27T00:50:19.242Z,98610.88
2023-02-27T00:51:22.697Z,98616.56
2023-02-27T00:52:25.443Z,98620.75
2023-02-27T00:53:27.096Z,98618.97
2023-02-27T00:54:29.861Z,98625.16
2023-02-27T00:55:31.529Z,98614.38
2023-02-27T00:56:34.665Z,98609.50
2023-02-27T00:57:36.483Z,98607.84
2023-02-27T00:58:39.129Z,98610.63
2023-02-27T00:59:41.060Z,98613.53
2023-02-27T01:00:43.696Z,98614.25
2023-02-27T01:01:45.438Z,98614.25
2023-02-27T01:02:48.131Z,98616.78
2023-02-27T01:03:49.790Z,98614.25
2023-02-27T01:04:52.431Z,98617.97
2023-02-27T01:05:54.085Z,98615.88
2023-02-27T01:06:58.100Z,98614.25
2023-02-27T01:07:59.765Z,98615.75
2023-02-27T01:09:02.409Z,98617.50
2023-02-27T01:10:04.481Z,98612.88
2023-02-27T01:11:07.128Z,98611.97
2023-02-27T01:12:09.005Z,98608.38
2023-02-27T01:13:11.624Z,98610.22
2023-02-27T01:14:13.275Z,98611.25
2023-02-27T01:15:15.908Z,98609.25
2023-02-27T01:16:17.569Z,98610.06
2023-02-27T01:17:20.246Z,98606.03
2023-02-27T01:18:21.921Z,98607.41
2023-02-27T01:19:24.620Z,98613.34
2023-02-27T01:20:26.275Z,98607.09
2023-02-27T01:21:29.155Z,98602.75
2023-02-27T01:22:33.305Z,98602.06
2023-02-27T01:23:35.944Z,98606.59
2023-02-27T01:24:37.596Z,98604.19
2023-02-27T01:25:40.400Z,98598.97
2023-02-27T01:26:42.062Z,98607.56
2023-02-27T01:27:44.740Z,98609.75
2023-02-27T01:28:46.410Z,98601.41
2023-02-27T01:29:49.094Z,98605.81
2023-02-27T01:30:50.791Z,98596.53
2023-02-27T01:31:53.464Z,98593.31
2023-02-27T01:32:56.189Z,98594.59
2023-02-27T01:33:57.850Z,98587.03
2023-02-27T01:35:00.472Z,98587.59
2023-02-27T01:36:02.173Z,98587.94
2023-02-27T01:37:04.788Z,98584.69
2023-02-27T01:38:07.795Z,98588.31
2023-02-27T01:39:10.412Z,98594.44
2023-02-27T01:40:13.498Z,98590.72
2023-02-27T01:41:16.132Z,98600.25
2023-02-27T01:42:19.544Z,98595.25
2023-02-27T01:43:23.018Z,98591.78
2023-02-27T01:44:25.800Z,98591.66
2023-02-27T01:45:31.260Z,98587.75
2023-02-27T01:46:33.119Z,98594.22
2023-02-27T01:47:35.750Z,98584.84
2023-02-27T01:48:37.722Z,98581.69
2023-02-27T01:49:40.488Z,98586.81
2023-02-27T01:50:45.703Z,98588.41
2023-02-27T01:51:50.297Z,98582.88
2023-02-27T01:52:53.755Z,98588.66
2023-02-27T01:53:57.793Z,98585.06
2023-02-27T01:54:59.430Z,98595.28
2023-02-27T01:56:05.427Z,98595.38
2023-02-27T01:57:07.146Z,98593.28
2023-02-27T01:58:11.446Z,98592.00
2023-02-27T01:59:13.130Z,98592.00
2023-02-27T02:00:16.269Z,98594.47
2023-02-27T02:01:18.133Z,98593.63
2023-02-27T02:02:22.426Z,98597.69
2023-02-27T02:03:26.433Z,98596.66
2023-02-27T02:04:30.986Z,98598.53
2023-02-27T02:05:32.622Z,98600.72
2023-02-27T02:06:41.553Z,98594.44
2023-02-27T02:07:43.193Z,98604.63
2023-02-27T02:08:47.625Z,98605.69
2023-02-27T02:09:53.265Z,98602.78
2023-02-27T02:10:55.890Z,98601.28
2023-02-27T02:11:57.568Z,98594.06
2023-02-27T02:13:00.300Z,98605.91
2023-02-27T02:14:02.828Z,98601.75
2023-02-27T02:15:06.181Z,98600.69
2023-02-27T02:16:22.038Z,98602.22
2023-02-27T02:17:27.406Z,98596.63
2023-02-27T02:18:32.062Z,98603.94
2023-02-27T02:20:09.225Z,98607.28
2023-02-27T02:21:44.494Z,98606.97
2023-02-27T02:23:17.617Z,98607.91
2023-02-27T02:25:08.852Z,98598.38
2023-02-27T02:26:52.369Z,98609.50
2023-02-27T02:28:00.273Z,98611.97
2023-02-27T02:29:33.580Z,98605.81
2023-02-27T02:31:17.631Z,98604.06
2023-02-27T02:32:59.832Z,98598.72
2023-02-27T02:34:15.395Z,98601.75
2023-02-27T02:35:46.854Z,98602.22
2023-02-27T02:37:32.027Z,98610.69
2023-02-27T02:38:51.412Z,98608.47
2023-02-27T02:40:01.015Z,98604.66
2023-02-27T02:41:04.615Z,98607.44
2023-02-27T02:42:11.843Z,98610.69
2023-02-27T02:43:15.180Z,98601.75
2023-02-27T02:44:20.423Z,98600.00
2023-02-27T02:45:25.751Z,98604.66
2023-02-27T02:46:32.222Z,98607.66
2023-02-27T02:47:35.936Z,98610.31
2023-02-27T02:48:40.687Z,98611.69
2023-02-27T02:49:44.003Z,98604.38
2023-02-27T02:50:50.256Z,98606.72
2023-02-27T02:51:53.558Z,98607.84
2023-02-27T02:52:59.457Z,98603.56
2023-02-27T02:54:04.297Z,98603.91
2023-02-27T02:55:09.238Z,98603.16
2023-02-27T02:56:12.934Z,98604.09
2023-02-27T02:57:16.549Z,98600.03
2023-02-27T02:58:21.764Z,98605.94
2023-02-27T02:59:28.637Z,98596.25
2023-02-27T03:00:31.813Z,98598.25
2023-02-27T03:01:36.436Z,98598.06
2023-02-27T03:02:39.455Z,98597.81
2023-02-27T03:03:42.996Z,98592.88
2023-02-27T03:04:46.704Z,98598.31
2023-02-27T03:05:51.173Z,98599.03
2023-02-27T03:06:54.953Z,98602.97
2023-02-27T03:07:58.571Z,98598.31
2023-02-27T03:09:05.507Z,98594.31
2023-02-27T03:10:10.050Z,98602.19
2023-02-27T03:11:11.668Z,98595.72
2023-02-27T03:12:16.827Z,98594.44
2023-02-27T03:13:20.899Z,98596.38
2023-02-27T03:14:25.698Z,98594.19
2023-02-27T03:15:28.256Z,98609.38
2023-02-27T03:16:32.622Z,98599.75
2023-02-27T03:17:39.112Z,98611.56
2023-02-27T03:18:44.316Z,98604.63
2023-02-27T03:19:48.712Z,98610.91
2023-02-27T03:20:53.910Z,98610.06
2023-02-27T03:21:56.795Z,98616.91
2023-02-27T03:23:02.555Z,98612.63
2023-02-27T03:24:06.820Z,98604.13
2023-02-27T03:25:10.785Z,98613.03
2023-02-27T03:26:14.006Z,98612.00
2023-02-27T03:27:16.829Z,98605.66
2023-02-27T03:28:19.344Z,98608.91
2023-02-27T03:29:24.894Z,98603.47
2023-02-27T03:30:28.597Z,98600.44
2023-02-27T03:31:32.974Z,98610.19
2023-02-27T03:32:38.208Z,98611.47
2023-02-27T03:33:42.925Z,98607.06
2023-02-27T03:34:44.547Z,98618.19
2023-02-27T03:35:51.866Z,98606.84
2023-02-27T03:36:56.890Z,98602.50
2023-02-27T03:38:01.090Z,98604.22
2023-02-27T03:39:06.228Z,98609.44
2023-02-27T03:40:12.252Z,98600.50
2023-02-27T03:41:14.868Z,98600.19
2023-02-27T03:42:21.743Z,98600.91
2023-02-27T03:43:27.990Z,98605.78
2023-02-27T03:44:32.751Z,98603.09
2023-02-27T03:45:37.495Z,98607.16
2023-02-27T03:46:40.538Z,98600.81
2023-02-27T03:47:42.145Z,98605.09
2023-02-27T03:48:45.175Z,98608.13
2023-02-27T03:49:46.801Z,98602.19
2023-02-27T03:50:49.383Z,98617.22
2023-02-27T03:51:51.003Z,98613.28
2023-02-27T03:52:53.631Z,98609.19
2023-02-27T03:53:57.617Z,98607.69
2023-02-27T03:55:03.164Z,98607.44
2023-02-27T03:56:05.656Z,98609.97
2023-02-27T03:57:08.722Z,98609.47
2023-02-27T03:58:10.329Z,98611.47
2023-02-27T03:59:13.030Z,98611.81
2023-02-27T04:00:16.302Z,98614.16
2023-02-27T04:01:19.191Z,98616.50
2023-02-27T04:02:20.780Z,98614.78
2023-02-27T04:03:23.419Z,98616.63
2023-02-27T04:04:25.406Z,98612.91
2023-02-27T04:05:28.499Z,98618.47
2023-02-27T04:06:48.745Z,98622.09
2023-02-27T04:07:59.034Z,98622.28
2023-02-27T04:09:03.439Z,98628.63
2023-02-27T04:10:19.144Z,98628.22
2023-02-27T04:11:41.427Z,98622.06
2023-02-27T04:13:28.835Z,98625.22
2023-02-27T04:14:36.637Z,98633.59
2023-02-27T04:15:48.102Z,98628.28
2023-02-27T04:17:09.178Z,98631.16
2023-02-27T04:18:20.027Z,98633.31
2023-02-27T04:19:46.244Z,98639.53
2023-02-27T04:20:50.477Z,98637.94
2023-02-27T04:21:57.090Z,98637.13
2023-02-27T04:23:00.978Z,98633.84
2023-02-27T04:24:05.331Z,98634.56
2023-02-27T04:25:23.993Z,98636.84
2023-02-27T04:26:27.877Z,98635.47
2023-02-27T04:27:35.155Z,98633.72
2023-02-27T04:28:41.426Z,98632.81
2023-02-27T04:29:48.550Z,98634.94
2023-02-27T04:30:58.903Z,98633.97
2023-02-27T04:32:02.448Z,98643.19
2023-02-27T04:33:08.407Z,98636.41
2023-02-27T04:34:12.513Z,98640.28
2023-02-27T04:35:17.310Z,98641.78
2023-02-27T04:36:23.538Z,98641.72
2023-02-27T04:37:28.480Z,98651.69
2023-02-27T04:38:32.372Z,98656.88
2023-02-27T04:39:36.008Z,98651.97
2023-02-27T04:40:40.942Z,98651.03
2023-02-27T04:41:44.686Z,98654.50
2023-02-27T04:42:47.583Z,98646.88
2023-02-27T04:43:50.162Z,98638.84
2023-02-27T04:44:51.845Z,98647.56
2023-02-27T04:45:54.497Z,98638.00
2023-02-27T04:46:56.424Z,98636.25
2023-02-27T04:48:00.155Z,98637.22
2023-02-27T04:49:04.079Z,98636.25
2023-02-27T04:50:09.536Z,98635.63
2023-02-27T04:51:12.897Z,98628.28
2023-02-27T04:52:17.040Z,98629.81
2023-02-27T04:53:20.417Z,98630.88
2023-02-27T04:54:24.284Z,98628.91
2023-02-27T04:55:27.316Z,98632.41
2023-02-27T04:56:32.352Z,98640.03
2023-02-27T04:57:36.668Z,98641.28
2023-02-27T04:58:40.988Z,98635.59
2023-02-27T04:59:45.231Z,98638.63
2023-02-27T05:00:50.494Z,98636.41
2023-02-27T05:01:55.337Z,98631.22
2023-02-27T05:02:59.791Z,98636.34
2023-02-27T05:04:02.385Z,98640.34
2023-02-27T05:05:08.798Z,98632.91
2023-02-27T05:06:11.512Z,98637.31
2023-02-27T05:07:15.502Z,98633.97
2023-02-27T05:08:21.153Z,98644.38
2023-02-27T05:09:27.427Z,98637.78
2023-02-27T05:10:30.747Z,98644.50
2023-02-27T05:11:37.563Z,98652.94
2023-02-27T05:12:41.070Z,98648.22
2023-02-27T05:13:45.672Z,98640.66
2023-02-27T05:14:50.074Z,98639.28
2023-02-27T05:15:53.983Z,98642.97
2023-02-27T05:16:58.820Z,98644.50
2023-02-27T05:18:02.982Z,98642.31
2023-02-27T05:19:04.662Z,98644.31
2023-02-27T05:20:08.729Z,98644.53
2023-02-27T05:21:16.172Z,98650.22
2023-02-27T05:22:24.337Z,98638.91
2023-02-27T05:23:31.663Z,98655.22
2023-02-27T05:24:36.690Z,98649.47
2023-02-27T05:25:41.700Z,98655.22
2023-02-27T05:26:56.077Z,98659.13
2023-02-27T05:27:59.171Z,98652.94
2023-02-27T05:29:04.194Z,98658.78
2023-02-27T05:30:09.036Z,98658.78
2023-02-27T05:31:16.323Z,98656.81
2023-02-27T05:32:22.882Z,98650.00
2023-02-27T05:33:27.355Z,98651.09
2023-02-27T05:34:32.060Z,98656.13
2023-02-27T05:35:36.897Z,98654.28
2023-02-27T05:36:39.959Z,98658.22
2023-02-27T05:37:44.567Z,98658.94
2023-02-27T05:38:47.485Z,98658.84
2023-02-27T05:39:50.060Z,98662.41
2023-02-27T05:40:53.736Z,98657.88
2023-02-27T05:41:59.247Z,98644.53
2023-02-27T05:43:02.962Z,98658.63
2023-02-27T05:44:07.496Z,98657.53
2023-02-27T05:45:10.864Z,98664.69
2023-02-27T05:46:15.637Z,98664.47
2023-02-27T05:47:18.540Z,98656.41
2023-02-27T05:48:22.594Z,98658.28
2023-02-27T05:49:25.630Z,98658.13
2023-02-27T05:50:30.793Z,98662.63
2023-02-27T05:51:33.708Z,98659.00
2023-02-27T05:52:36.298Z,98659.97
2023-02-27T05:53:39.977Z,98665.94
2023-02-27T05:54:43.983Z,98660.72
2023-02-27T05:55:47.039Z,98656.84
2023-02-27T05:56:50.127Z,98661.63
2023-02-27T05:57:54.006Z,98662.06
2023-02-27T05:58:58.634Z,98650.66
2023-02-27T06:00:03.006Z,98657.94
2023-02-27T06:01:06.268Z,98666.84
2023-02-27T06:02:07.937Z,98660.97
2023-02-27T06:03:10.559Z,98663.34
2023-02-27T06:04:12.439Z,98656.31
2023-02-27T06:05:15.786Z,98665.34
2023-02-27T06:06:18.385Z,98648.66
2023-02-27T06:07:20.960Z,98657.28
2023-02-27T06:08:22.600Z,98657.88
2023-02-27T06:09:25.207Z,98653.84
2023-02-27T06:10:27.082Z,98657.16
2023-02-27T06:11:29.675Z,98655.75
2023-02-27T06:12:31.424Z,98654.88
2023-02-27T06:13:35.334Z,98661.50
2023-02-27T06:14:37.011Z,98654.91
2023-02-27T06:15:39.591Z,98657.50
2023-02-27T06:16:41.252Z,98659.88
2023-02-27T06:17:43.874Z,98651.03
2023-02-27T06:18:45.466Z,98660.19
2023-02-27T06:19:48.303Z,98659.31
2023-02-27T06:20:49.985Z,98656.78
2023-02-27T06:21:52.590Z,98646.91
2023-02-27T06:22:54.228Z,98653.38
2023-02-27T06:23:56.867Z,98660.56
2023-02-27T06:24:58.547Z,98659.31
2023-02-27T06:26:01.132Z,98659.69
2023-02-27T06:27:02.718Z,98656.94
2023-02-27T06:28:05.692Z,98657.59
2023-02-27T06:29:08.642Z,98661.16
2023-02-27T06:30:12.463Z,98661.81
2023-02-27T06:31:14.127Z,98667.44
2023-02-27T06:32:16.787Z,98661.34
2023-02-27T06:33:18.448Z,98664.03
2023-02-27T06:34:21.023Z,98660.84
2023-02-27T06:35:22.691Z,98663.00
2023-02-27T06:36:25.546Z,98670.31
2023-02-27T06:37:27.354Z,98661.91
2023-02-27T06:38:29.949Z,98662.84
2023-02-27T06:39:32.675Z,98671.09
2023-02-27T06:40:35.323Z,98680.94
2023-02-27T06:41:36.963Z,98673.34
2023-02-27T06:42:39.642Z,98675.31
2023-02-27T06:43:41.243Z,98668.91
2023-02-27T06:44:45.184Z,98670.81
2023-02-27T06:45:46.938Z,98671.28
2023-02-27T06:46:49.508Z,98678.47
2023-02-27T06:47:52.098Z,98682.50
2023-02-27T06:48:53.719Z,98683.53
2023-02-27T06:49:56.309Z,98685.56
2023-02-27T06:50:57.978Z,98681.50
2023-02-27T06:52:00.544Z,98684.97
2023-02-27T06:53:02.169Z,98693.41
2023-02-27T06:54:04.933Z,98692.53
2023-02-27T06:55:08.194Z,98692.16
2023-02-27T06:56:10.811Z,98694.16
2023-02-27T06:57:12.448Z,98694.06
2023-02-27T06:58:15.076Z,98688.09
2023-02-27T06:59:16.680Z,98688.72
2023-02-27T07:00:21.673Z,98697.09
2023-02-27T07:01:24.894Z,98698.06
2023-02-27T07:02:27.512Z,98697.63
2023-02-27T07:03:29.128Z,98703.75
2023-02-27T07:04:31.740Z,98703.19
2023-02-27T07:05:33.394Z,98701.81
2023-02-27T07:07:35.850Z,98704.59
2023-02-27T07:07:59.291Z,98705.66
2023-02-27T07:09:06.857Z,98704.59
2023-02-27T07:10:11.617Z,98697.97
2023-02-27T07:11:14.231Z,98710.03
2023-02-27T07:12:15.909Z,98708.78
2023-02-27T07:13:19.694Z,98713.41
2023-02-27T07:14:21.659Z,98717.94
2023-02-27T07:15:25.583Z,98706.41
2023-02-27T07:16:27.488Z,98718.97
2023-02-27T07:17:30.251Z,98730.22
2023-02-27T07:18:32.086Z,98717.06
2023-02-27T07:19:35.900Z,98724.03
2023-02-27T07:20:37.566Z,98719.78
2023-02-27T07:21:40.146Z,98720.47
2023-02-27T07:22:42.769Z,98727.28
2023-02-27T07:23:45.361Z,98729.09
2023-02-27T07:24:47.020Z,98738.59
2023-02-27T07:25:49.602Z,98733.13
2023-02-27T07:26:51.261Z,98733.91
2023-02-27T07:27:53.905Z,98744.47
2023-02-27T07:28:55.519Z,98749.13
2023-02-27T07:29:58.128Z,98745.66
2023-02-27T07:31:02.201Z,98746.22
2023-02-27T07:32:03.952Z,98744.28
2023-02-27T07:33:07.076Z,98743.00
2023-02-27T07:34:09.624Z,98743.66
2023-02-27T07:35:12.743Z,98746.63
2023-02-27T07:36:14.345Z,98747.31
2023-02-27T07:37:16.994Z,98746.09
2023-02-27T07:38:19.132Z,98744.84
2023-02-27T07:39:21.729Z,98747.25
2023-02-27T07:40:23.341Z,98754.44
2023-02-27T07:41:30.616Z,98753.03
2023-02-27T07:42:32.833Z,98753.75
2023-02-27T07:43:35.436Z,98751.91
2023-02-27T07:44:38.135Z,98762.91
2023-02-27T07:45:39.758Z,98762.91
2023-02-27T07:46:44.643Z,98757.56
2023-02-27T07:47:47.335Z,98747.50
2023-02-27T07:48:48.977Z,98740.63
2023-02-27T07:49:51.550Z,98756.47
2023-02-27T07:50:54.144Z,98767.81
2023-02-27T07:51:56.251Z,98770.00
2023-02-27T07:52:58.874Z,98785.09
2023-02-27T07:54:01.444Z,98777.50
2023-02-27T07:55:03.086Z,98779.94
2023-02-27T07:56:06.271Z,98782.97
2023-02-27T07:57:08.874Z,98791.06
2023-02-27T07:58:11.464Z,98790.22
2023-02-27T07:59:13.110Z,98788.09
2023-02-27T08:00:16.493Z,98789.91
2023-02-27T08:01:19.080Z,98786.25
2023-02-27T08:02:22.091Z,98783.81
2023-02-27T08:03:24.721Z,98782.34
2023-02-27T08:04:27.347Z,98782.38
2023-02-27T08:05:29.050Z,98786.50
2023-02-27T08:06:31.644Z,98779.19
2023-02-27T08:07:33.261Z,98776.00
2023-02-27T08:08:35.926Z,98772.03
2023-02-27T08:09:38.495Z,98772.13
2023-02-27T08:10:40.095Z,98783.59
2023-02-27T08:11:42.673Z,98783.59
2023-02-27T08:12:45.812Z,98787.84
2023-02-27T08:14:03.287Z,98789.84
2023-02-27T08:15:07.245Z,98789.84
2023-02-27T08:16:09.857Z,98776.28
2023-02-27T08:17:11.466Z,98785.34
2023-02-27T08:18:15.425Z,98791.44
2023-02-27T08:19:17.063Z,98790.88
2023-02-27T08:20:22.586Z,98788.94
2023-02-27T08:21:24.306Z,98784.19
2023-02-27T08:22:27.023Z,98788.88
2023-02-27T08:23:29.614Z,98790.63
2023-02-27T08:24:31.246Z,98782.66
2023-02-27T08:25:33.889Z,98793.09
2023-02-27T08:26:35.541Z,98792.13
2023-02-27T08:27:38.165Z,98795.31
2023-02-27T08:28:39.854Z,98797.41
2023-02-27T08:29:43.265Z,98793.22
2023-02-27T08:30:44.889Z,98794.38
2023-02-27T08:31:47.809Z,98782.63
2023-02-27T08:32:49.439Z,98792.31
2023-02-27T08:34:04.271Z,98797.25
2023-02-27T08:35:10.780Z,98795.34
2023-02-27T08:36:13.425Z,98798.31
2023-02-27T08:37:16.059Z,98796.94
2023-02-27T08:38:17.662Z,98805.78
2023-02-27T08:39:20.438Z,98793.00
2023-02-27T08:40:22.077Z,98796.41
2023-02-27T08:41:24.704Z,98796.38
2023-02-27T08:42:26.991Z,98800.31
2023-02-27T08:43:29.619Z,98802.19
2023-02-27T08:44:31.228Z,98799.31
2023-02-27T08:45:33.856Z,98801.13
2023-02-27T08:46:35.544Z,98807.53
2023-02-27T08:47:38.172Z,98800.41
2023-02-27T08:48:42.168Z,98795.69
2023-02-27T08:49:46.100Z,98796.28
2023-02-27T08:50:47.771Z,98805.75
2023-02-27T08:51:50.416Z,98799.16
2023-02-27T08:52:52.983Z,98803.59
2023-02-27T08:53:58.753Z,98808.47
2023-02-27T08:55:01.337Z,98803.19
2023-02-27T08:56:02.933Z,98805.59
2023-02-27T08:57:05.554Z,98801.56
2023-02-27T08:58:07.373Z,98802.41
2023-02-27T08:59:09.988Z,98802.91
2023-02-27T09:00:15.112Z,98797.78
2023-02-27T09:01:16.818Z,98799.59
2023-02-27T09:02:19.549Z,98800.97
2023-02-27T09:03:21.374Z,98796.94
2023-02-27T09:04:23.976Z,98799.41
2023-02-27T09:05:26.924Z,98807.50
2023-02-27T09:06:29.892Z,98805.09
2023-02-27T09:07:31.726Z,98808.59
2023-02-27T09:08:34.336Z,98810.19
2023-02-27T09:09:35.946Z,98812.09
2023-02-27T09:10:38.557Z,98811.00
2023-02-27T09:11:40.262Z,98805.63
2023-02-27T09:12:42.926Z,98809.66
2023-02-27T09:13:45.241Z,98811.53
2023-02-27T09:14:47.849Z,98810.75
2023-02-27T09:15:49.497Z,98814.75
2023-02-27T09:16:52.147Z,98804.19
2023-02-27T09:17:56.371Z,98804.25
2023-02-27T09:18:59.006Z,98805.31
2023-02-27T09:20:00.742Z,98815.84
2023-02-27T09:21:04.871Z,98819.06
2023-02-27T09:22:07.444Z,98816.06
2023-02-27T09:23:09.071Z,98806.88
2023-02-27T09:24:19.803Z,98804.97
2023-02-27T09:25:24.077Z,98810.31
2023-02-27T09:26:40.055Z,98805.06
2023-02-27T09:27:43.440Z,98812.34
2023-02-27T09:28:45.063Z,98800.75
2023-02-27T09:29:48.897Z,98807.31
2023-02-27T09:30:50.547Z,98808.22
2023-02-27T09:31:53.387Z,98808.84
2023-02-27T09:32:55.048Z,98812.09
2023-02-27T09:33:58.187Z,98816.66
2023-02-27T09:35:00.414Z,98816.88
2023-02-27T09:36:05.629Z,98826.84
2023-02-27T09:37:08.244Z,98814.38
2023-02-27T09:38:10.394Z,98818.69
2023-02-27T09:39:13.026Z,98814.50
2023-02-27T09:40:19.903Z,98820.78
2023-02-27T09:41:43.201Z,98827.72
2023-02-27T09:42:47.592Z,98819.91
2023-02-27T09:43:50.141Z,98825.28
2023-02-27T09:44:53.310Z,98823.09
2023-02-27T09:45:56.385Z,98825.53
2023-02-27T09:46:58.035Z,98822.28
2023-02-27T09:48:01.493Z,98814.00
2023-02-27T09:49:04.755Z,98815.72
2023-02-27T09:50:08.887Z,98823.66
2023-02-27T09:51:11.840Z,98821.75
2023-02-27T09:52:14.472Z,98819.22
2023-02-27T09:53:18.672Z,98824.56
2023-02-27T09:54:21.279Z,98817.75
2023-02-27T09:55:24.005Z,98811.75
2023-02-27T09:56:28.194Z,98807.41
2023-02-27T09:57:42.046Z,98824.00
2023-02-27T09:58:46.779Z,98818.53
2023-02-27T09:59:50.643Z,98811.13
2023-02-27T10:00:57.192Z,98803.19
2023-02-27T10:02:01.298Z,98791.91
2023-02-27T10:03:09.147Z,98824.88
2023-02-27T10:04:28.675Z,98810.66
2023-02-27T10:05:33.079Z,98821.72
2023-02-27T10:06:39.845Z,98818.03
2023-02-27T10:07:42.785Z,98799.06
2023-02-27T10:08:47.187Z,98815.31
2023-02-27T10:09:55.597Z,98810.66
2023-02-27T10:11:00.897Z,98817.44
2023-02-27T10:12:10.957Z,98821.19
2023-02-27T10:13:31.433Z,98813.34
2023-02-27T10:14:38.692Z,98808.59
2023-02-27T10:15:42.829Z,98798.22
2023-02-27T10:16:44.540Z,98810.94
2023-02-27T10:17:50.054Z,98803.25
2023-02-27T10:18:55.269Z,98807.19
2023-02-27T10:19:58.199Z,98808.72
2023-02-27T10:21:01.556Z,98813.91
2023-02-27T10:22:07.590Z,98803.34
2023-02-27T10:23:11.881Z,98817.97
2023-02-27T10:24:18.530Z,98818.75
2023-02-27T10:25:31.233Z,98810.63
2023-02-27T10:26:37.465Z,98812.03
2023-02-27T10:27:40.059Z,98815.66
2023-02-27T10:28:41.680Z,98815.50
2023-02-27T10:29:44.306Z,98808.69
2023-02-27T10:30:48.812Z,98811.16
2023-02-27T10:31:53.577Z,98809.19
2023-02-27T10:32:57.737Z,98809.75
2023-02-27T10:33:59.351Z,98818.13
2023-02-27T10:35:08.457Z,98817.09
2023-02-27T10:36:18.021Z,98819.31
2023-02-27T10:37:25.732Z,98815.53
2023-02-27T10:38:31.303Z,98822.28
2023-02-27T10:39:38.735Z,98825.09
2023-02-27T10:40:40.543Z,98809.00
2023-02-27T10:41:43.198Z,98816.56
2023-02-27T10:42:44.995Z,98817.19
2023-02-27T10:43:47.589Z,98810.56
2023-02-27T10:44:53.467Z,98817.16
2023-02-27T10:45:56.300Z,98820.19
2023-02-27T10:46:58.903Z,98818.28
2023-02-27T10:48:01.573Z,98817.31
2023-02-27T10:49:08.248Z,98813.91
2023-02-27T10:50:21.826Z,98811.09
2023-02-27T10:51:26.511Z,98820.59
2023-02-27T10:52:30.654Z,98816.22
2023-02-27T10:53:32.254Z,98811.13
2023-02-27T10:54:34.880Z,98821.59
2023-02-27T10:55:39.106Z,98819.72
2023-02-27T10:56:40.855Z,98811.69
2023-02-27T10:57:43.685Z,98814.72
2023-02-27T10:58:46.280Z,98814.72
2023-02-27T10:59:52.291Z,98819.19
2023-02-27T11:00:55.716Z,98819.50
2023-02-27T11:01:58.274Z,98796.16
2023-02-27T11:03:00.962Z,98805.91
2023-02-27T11:04:03.556Z,98800.53
2023-02-27T11:05:06.207Z,98803.97
2023-02-27T11:06:10.640Z,98800.63
2023-02-27T11:07:12.446Z,98804.94
2023-02-27T11:08:21.601Z,98806.13
2023-02-27T11:09:24.450Z,98815.16
2023-02-27T11:10:28.151Z,98803.75
2023-02-27T11:11:30.864Z,98815.28
2023-02-27T11:12:33.254Z,98810.66
2023-02-27T11:13:36.581Z,98804.16
2023-02-27T11:14:48.160Z,98813.38
2023-02-27T11:16:07.117Z,98805.88
2023-02-27T11:17:10.112Z,98797.47
2023-02-27T11:18:25.868Z,98799.09
2023-02-27T11:19:33.478Z,98801.41
2023-02-27T11:20:37.537Z,98801.41
2023-02-27T11:21:39.160Z,98806.59
2023-02-27T11:22:42.631Z,98789.41
2023-02-27T11:23:53.593Z,98799.19
2023-02-27T11:25:16.607Z,98800.44
2023-02-27T11:26:20.887Z,98799.56
2023-02-27T11:27:26.535Z,98802.66
2023-02-27T11:28:29.714Z,98792.72
2023-02-27T11:29:32.360Z,98795.56
2023-02-27T11:30:35.611Z,98795.31
2023-02-27T11:31:38.652Z,98792.56
2023-02-27T11:32:45.239Z,98785.06
2023-02-27T11:33:50.786Z,98792.94
2023-02-27T11:34:53.485Z,98794.94
2023-02-27T11:35:57.745Z,98793.09
2023-02-27T11:37:02.219Z,98790.28
2023-02-27T11:38:04.661Z,98785.53
2023-02-27T11:39:08.762Z,98791.13
2023-02-27T11:40:15.635Z,98789.59
2023-02-27T11:41:18.712Z,98785.88
2023-02-27T11:42:24.781Z,98790.38
2023-02-27T11:43:28.412Z,98784.06
2023-02-27T11:44:50.370Z,98779.81
2023-02-27T11:46:04.413Z,98793.94
2023-02-27T11:47:14.582Z,98787.34
2023-02-27T11:48:19.462Z,98789.50
2023-02-27T11:49:28.164Z,98776.50
2023-02-27T11:50:37.730Z,98782.41
2023-02-27T11:51:48.007Z,98778.28
2023-02-27T11:52:50.760Z,98780.72
2023-02-27T11:54:09.388Z,98785.06
2023-02-27T11:55:15.901Z,98788.69
2023-02-27T11:56:18.743Z,98787.19
2023-02-27T11:57:23.600Z,98783.38
2023-02-27T11:58:27.902Z,98783.13
2023-02-27T11:59:37.732Z,98780.31
2023-02-27T12:00:40.574Z,98772.44
2023-02-27T12:01:45.924Z,98774.75
2023-02-27T12:02:50.058Z,98778.84
2023-02-27T12:03:55.935Z,98778.97
2023-02-27T12:05:00.695Z,98777.34
2023-02-27T12:06:04.822Z,98774.91
2023-02-27T12:07:10.911Z,98777.22
2023-02-27T12:08:15.625Z,98774.78
2023-02-27T12:09:30.529Z,98773.19
2023-02-27T12:10:35.987Z,98778.19
2023-02-27T12:11:38.878Z,98774.66
2023-02-27T12:12:44.152Z,98772.78
2023-02-27T12:13:50.568Z,98775.56
2023-02-27T12:15:00.541Z,98773.53
2023-02-27T12:16:05.029Z,98775.19
2023-02-27T12:17:10.720Z,98768.81
2023-02-27T12:18:16.530Z,98772.75
2023-02-27T12:19:19.511Z,98771.88
2023-02-27T12:20:29.065Z,98781.44
2023-02-27T12:21:32.689Z,98778.59
2023-02-27T12:22:37.398Z,98770.44
2023-02-27T12:23:41.943Z,98774.59
2023-02-27T12:24:47.125Z,98776.34
2023-02-27T12:25:52.590Z,98775.31
2023-02-27T12:26:58.190Z,98776.44
2023-02-27T12:28:02.541Z,98757.81
2023-02-27T12:29:10.070Z,98761.38
2023-02-27T12:30:15.017Z,98771.97
2023-02-27T12:31:43.567Z,98770.81
2023-02-27T12:32:50.145Z,98754.94
2023-02-27T12:33:54.431Z,98762.25
2023-02-27T12:35:00.227Z,98755.03
2023-02-27T12:36:02.789Z,98760.81
2023-02-27T12:37:06.546Z,98747.41
2023-02-27T12:38:08.360Z,98763.25
2023-02-27T12:39:16.214Z,98757.34
2023-02-27T12:40:20.974Z,98759.78